Wildomar, CA (92595)

1:25 AM PDT on October 01, 2014 (GMT -0700)
MesoWest Murrieta CA US SGXWFO | Change Station
CLOSE
Current Station
Personal Weather Station
Location: Wildomar, CA
Elevation: 1240 ft
Nearby Weather Stations
Active Advisory: Heat Advisory

Elev 1240 ft 33.57 °N, 117.25 °W | Updated 36 minutes ago

Clear
Clear
64 °F
Feels Like 64 °F
N
2
Wind Variable Wind from WSW
Gusts 6.0 mph

Today
High -- | Low -- °F
--% Chance of Precip.
Yesterday
High -- | Low -- °F
Precip. -- in
6:43 AM 6:33 PM
Waxing Crescent, 45% visible
Pressure 29.81 in
Visibility 10.0 miles
Clouds Clear
Dew Point 56 °F
Humidity 76%
Rainfall -9999.00 in
Snow Depth Not available.
UV 0 out of 12
Pollen 5.10 out of 12
Ozone Good
PM2.5 Good
Flu Activity Not available.
METAR KF70 010815Z AUTO 00000KT 10SM CLR 16/12 A2981 RMK AO1

More Conditions Fewer Conditions

Pressure 29.81 in
Visibility 10.0 miles
Clouds Clear
Dew Point 56 °F
Humidity 76%
Rainfall -9999.00 in
Snow Depth Not available.
UV 0 out of 12
Pollen 5.10 out of 12
Ozone Good
PM2.5 Good
Flu Activity Not available.
METAR KF70 010815Z AUTO 00000KT 10SM CLR 16/12 A2981 RMK AO1

More Conditions Fewer Conditions

10-Day Weather Forecast

Almanac

Astronomy

Oct. 01, 2014 Rise Set
Actual Time 6:43 AM PDT 6:33 PM PDT
Civil Twilight 6:18 AM PDT 6:58 PM PDT
Nautical Twilight 5:49 AM PDT 7:26 PM PDT
Astronomical Twilight 5:20 AM PDT 7:55 PM PDT
Moon 1:36 PM PDT No Moon Set
Length of Visible Light 12h 39m
Length of Day
11h 49m
Tomorrow will be 2m 4s shorter.
Waxing Crescent, 45% of the Moon is Illuminated
Today
Waxing Crescent
Oct 1
First Quarter
Oct 8
Full
Oct 15
Last Quarter
Oct 23
New

Today's Extremes

State Highs State Lows

Community

WunderPhotos

Upload Photos

1,757,902 photos uploaded!

Nearby

Air Quality

  Air Quality AQ Index Pollutant
Yesterday Good
PM10
Yesterday Good
OZONE
Current Good
PM2.5
Current Good
OZONE
Wednesday Good
PM10
Wednesday Moderate
OZONE
Wednesday Good
CO
Wednesday Good
NO2

Snow Depth

Station Depth Elevation
Independence Creek 0 in 6500 ft
Heavenly Valley 0 in 8850 ft
Spratt Creek 1 in 6200 ft
Horse Meadow 0 in 8631 ft
Independence Camp 0 in 7000 ft

Earthquake Activity

City Distance Mag. Time & Date
Avalon, California 72 miles 2.6 1:28 PM PDT
2014-09-30
Minimum magnitude displayed is 2.5.

Coastal Water Temperatures

Place Temperature
La Jolla, CA 72.0 °F
San Diego, CA 73.9 °F

Nearby Weather Stations